createdAt,value
2018-07-08T00:02:26.708Z,71.74
2018-07-08T00:04:56.668Z,72.67
2018-07-08T00:07:26.652Z,71.94
2018-07-08T00:09:56.502Z,72.35
2018-07-08T00:12:26.397Z,72.57
2018-07-08T00:14:56.308Z,72.74
2018-07-08T00:17:26.240Z,72.76
2018-07-08T00:19:56.087Z,72.68
2018-07-08T00:22:26.016Z,73.18
2018-07-08T00:24:55.913Z,72.72
2018-07-08T00:27:25.808Z,72.82
2018-07-08T00:29:55.687Z,72.80
2018-07-08T00:32:25.499Z,73.15
2018-07-08T00:34:55.355Z,73.70
2018-07-08T00:37:25.591Z,72.89
2018-07-08T00:39:55.468Z,73.32
2018-07-08T00:42:25.385Z,73.54
2018-07-08T00:44:55.263Z,73.30
2018-07-08T00:47:25.179Z,74.09
2018-07-08T00:49:54.988Z,74.82
2018-07-08T00:52:24.901Z,75.68
2018-07-08T00:54:54.739Z,75.70
2018-07-08T00:57:24.638Z,75.18
2018-07-08T00:59:54.492Z,75.82
2018-07-08T01:02:24.380Z,75.57
2018-07-08T01:04:54.232Z,75.60
2018-07-08T01:07:24.120Z,74.78
2018-07-08T01:09:53.953Z,73.72
2018-07-08T01:12:23.844Z,73.32
2018-07-08T01:14:53.760Z,72.75
2018-07-08T01:17:23.618Z,72.16
2018-07-08T01:19:53.601Z,71.72
2018-07-08T01:22:23.513Z,71.91
2018-07-08T01:25:03.036Z,71.71
2018-07-08T01:27:32.885Z,72.08
2018-07-08T01:30:02.708Z,71.98
2018-07-08T01:32:32.548Z,72.29
2018-07-08T01:35:02.491Z,71.97
2018-07-08T01:37:32.728Z,71.72
2018-07-08T01:40:02.621Z,72.34
2018-07-08T01:42:32.593Z,72.37
2018-07-08T01:45:02.508Z,72.25
2018-07-08T01:47:32.332Z,72.31
2018-07-08T01:50:02.220Z,72.17
2018-07-08T01:52:32.023Z,72.44
2018-07-08T01:55:01.904Z,72.54
2018-07-08T01:57:31.844Z,71.65
2018-07-08T02:00:01.770Z,72.07
2018-07-08T02:02:31.663Z,71.57
2018-07-08T02:05:01.630Z,71.38
2018-07-08T02:07:31.516Z,71.09
2018-07-08T02:10:01.466Z,71.35
2018-07-08T02:12:31.427Z,71.09
2018-07-08T02:15:01.425Z,71.36
2018-07-08T02:17:31.291Z,70.37
2018-07-08T02:20:01.362Z,69.90
2018-07-08T02:22:31.272Z,69.75
2018-07-08T02:25:01.257Z,69.58
2018-07-08T02:27:31.203Z,69.05
2018-07-08T02:30:01.136Z,69.08
2018-07-08T02:32:31.083Z,69.04
2018-07-08T02:35:00.942Z,68.85
2018-07-08T02:37:30.797Z,68.89
2018-07-08T02:40:00.786Z,69.02
2018-07-08T02:42:30.792Z,68.41
2018-07-08T02:45:00.628Z,69.17
2018-07-08T02:47:30.580Z,69.11
2018-07-08T02:50:00.484Z,69.33
2018-07-08T02:52:30.471Z,69.08
2018-07-08T02:55:00.331Z,69.49
2018-07-08T02:57:30.180Z,68.91
2018-07-08T02:59:59.989Z,67.95
2018-07-08T03:02:29.880Z,68.10
2018-07-08T03:04:59.711Z,68.30
2018-07-08T03:07:29.564Z,66.97
2018-07-08T03:09:59.428Z,67.26
2018-07-08T03:12:29.323Z,68.06
2018-07-08T03:14:59.126Z,67.03
2018-07-08T03:17:28.965Z,66.06
2018-07-08T03:19:58.876Z,66.65
2018-07-08T03:22:28.836Z,66.59
2018-07-08T03:24:58.628Z,67.80
2018-07-08T03:27:28.473Z,66.27
2018-07-08T03:29:58.304Z,67.22
2018-07-08T03:32:28.160Z,66.47
2018-07-08T03:34:57.981Z,66.62
2018-07-08T03:37:27.962Z,66.34
2018-07-08T03:39:57.788Z,66.05
2018-07-08T03:42:27.620Z,66.75
2018-07-08T03:44:57.459Z,66.38
2018-07-08T03:47:27.273Z,66.17
2018-07-08T03:49:57.113Z,66.37
2018-07-08T03:52:26.970Z,66.77
2018-07-08T03:54:56.792Z,67.42
2018-07-08T03:57:26.692Z,67.88
2018-07-08T03:59:56.551Z,68.75
2018-07-08T04:02:26.376Z,68.70
2018-07-08T04:04:56.260Z,69.37
2018-07-08T04:07:26.089Z,69.86
2018-07-08T04:09:55.981Z,69.50
2018-07-08T04:12:25.787Z,69.96
2018-07-08T04:14:55.653Z,69.49
2018-07-08T04:17:25.515Z,69.93
2018-07-08T04:19:55.355Z,69.47
2018-07-08T04:22:25.231Z,69.26
2018-07-08T04:24:55.124Z,68.64
2018-07-08T04:27:24.960Z,68.35
2018-07-08T04:29:54.805Z,67.66
2018-07-08T04:32:24.681Z,68.16
2018-07-08T04:34:54.485Z,67.74
2018-07-08T04:37:24.372Z,68.48
2018-07-08T04:39:54.181Z,67.34
2018-07-08T04:42:24.045Z,67.64
2018-07-08T04:44:53.850Z,67.70
2018-07-08T04:47:23.696Z,67.20
2018-07-08T04:49:53.516Z,67.11
2018-07-08T04:52:23.361Z,66.82
2018-07-08T04:54:53.199Z,66.30
2018-07-08T04:57:23.024Z,66.98
2018-07-08T04:59:52.855Z,66.69
2018-07-08T05:02:22.848Z,66.51
2018-07-08T05:04:52.680Z,66.25
2018-07-08T05:07:22.567Z,66.88
2018-07-08T05:09:52.403Z,66.35
2018-07-08T05:12:22.197Z,65.87
2018-07-08T05:14:52.084Z,65.88
2018-07-08T05:17:21.936Z,64.25
2018-07-08T05:19:51.793Z,64.90
2018-07-08T05:22:21.691Z,63.56
2018-07-08T05:24:51.530Z,63.50
2018-07-08T05:27:21.360Z,63.25
2018-07-08T05:29:51.287Z,63.31
2018-07-08T05:32:21.113Z,62.57
2018-07-08T05:34:51.011Z,61.53
2018-07-08T05:37:20.959Z,61.45
2018-07-08T05:39:50.812Z,59.67
2018-07-08T05:42:20.596Z,60.95
2018-07-08T05:44:50.473Z,60.94
2018-07-08T05:47:20.282Z,60.01
2018-07-08T05:49:50.143Z,59.36
2018-07-08T05:52:19.960Z,59.39
2018-07-08T05:54:49.804Z,59.52
2018-07-08T05:57:19.640Z,58.26
2018-07-08T05:59:49.429Z,58.67
2018-07-08T06:02:19.301Z,58.78
2018-07-08T06:04:49.096Z,58.08
2018-07-08T06:07:18.922Z,58.60
2018-07-08T06:09:48.756Z,57.76
2018-07-08T06:12:18.628Z,58.33
2018-07-08T06:14:48.456Z,57.46
2018-07-08T06:17:18.350Z,58.50
2018-07-08T06:19:48.209Z,58.13
2018-07-08T06:22:18.080Z,57.14
2018-07-08T06:24:47.953Z,58.19
2018-07-08T06:27:17.793Z,57.89
2018-07-08T06:29:47.649Z,58.54
2018-07-08T06:32:17.486Z,57.52
2018-07-08T06:34:47.308Z,57.07
2018-07-08T06:37:17.112Z,56.97
2018-07-08T06:39:46.937Z,57.15
2018-07-08T06:42:16.729Z,57.77
2018-07-08T06:44:46.636Z,57.80
2018-07-08T06:47:16.491Z,57.69
2018-07-08T06:49:46.304Z,57.10
2018-07-08T06:52:16.139Z,58.52
2018-07-08T06:54:46.000Z,58.25
2018-07-08T06:57:15.856Z,58.17
2018-07-08T06:59:45.672Z,58.19
2018-07-08T07:02:15.560Z,58.91
2018-07-08T07:04:45.384Z,59.18
2018-07-08T07:07:15.221Z,58.57
2018-07-08T07:09:45.037Z,58.75
2018-07-08T07:12:14.901Z,57.99
2018-07-08T07:14:44.810Z,58.17
2018-07-08T07:17:14.693Z,57.80
2018-07-08T07:19:44.508Z,57.63
2018-07-08T07:22:14.360Z,57.80
2018-07-08T07:24:44.175Z,57.23
2018-07-08T07:27:14.064Z,57.27
2018-07-08T07:29:43.881Z,56.57
2018-07-08T07:32:13.736Z,57.38
2018-07-08T07:34:43.528Z,56.63
2018-07-08T07:37:13.425Z,56.83
2018-07-08T07:39:43.230Z,56.49
2018-07-08T07:42:13.096Z,56.08
2018-07-08T07:44:42.937Z,55.25
2018-07-08T07:47:12.789Z,55.50
2018-07-08T07:49:42.626Z,54.16
2018-07-08T07:52:12.488Z,53.96
2018-07-08T07:54:42.277Z,54.11
2018-07-08T07:57:12.117Z,53.11
2018-07-08T07:59:41.976Z,52.98
2018-07-08T08:02:11.820Z,51.48
2018-07-08T08:04:41.653Z,52.07
2018-07-08T08:07:11.495Z,51.71
2018-07-08T08:09:41.370Z,50.57
2018-07-08T08:12:11.216Z,50.13
2018-07-08T08:14:41.070Z,50.14
2018-07-08T08:17:10.912Z,49.87
2018-07-08T08:19:40.724Z,49.58
2018-07-08T08:22:10.579Z,50.66
2018-07-08T08:24:40.400Z,50.05
2018-07-08T08:27:10.276Z,50.26
2018-07-08T08:29:40.080Z,50.90
2018-07-08T08:32:09.996Z,51.44
2018-07-08T08:34:48.885Z,49.55
2018-07-08T08:37:19.572Z,48.64
2018-07-08T08:39:50.244Z,48.92
2018-07-08T08:42:20.088Z,48.34
2018-07-08T08:44:51.566Z,49.10
2018-07-08T08:47:21.829Z,49.03
2018-07-08T08:49:52.471Z,48.50
2018-07-08T08:52:22.399Z,47.86
2018-07-08T08:54:53.148Z,48.42
2018-07-08T08:57:23.044Z,47.99
2018-07-08T08:59:52.875Z,49.36
2018-07-08T09:02:22.756Z,47.50
2018-07-08T09:04:52.604Z,48.30
2018-07-08T09:07:22.946Z,47.46
2018-07-08T09:09:52.810Z,47.07
2018-07-08T09:12:23.377Z,47.28
2018-07-08T09:14:53.232Z,47.78
2018-07-08T09:17:23.098Z,47.52
2018-07-08T09:19:54.625Z,47.17
2018-07-08T09:22:24.729Z,46.09
2018-07-08T09:24:54.652Z,46.91
2018-07-08T09:27:24.532Z,45.94
2018-07-08T09:29:54.421Z,45.87
2018-07-08T09:32:25.497Z,45.11
2018-07-08T09:34:55.328Z,44.91
2018-07-08T09:37:25.148Z,45.55
2018-07-08T09:39:55.303Z,46.30
2018-07-08T09:42:25.169Z,45.88
2018-07-08T09:47:28.917Z,45.60
2018-07-08T09:49:58.776Z,44.45
2018-07-08T09:52:31.221Z,43.73
2018-07-08T09:55:02.149Z,42.56
2018-07-08T09:57:32.024Z,43.98
2018-07-08T10:00:01.845Z,42.72
2018-07-08T10:02:32.106Z,44.05
2018-07-08T10:05:01.963Z,44.08
2018-07-08T10:07:31.798Z,43.89
2018-07-08T10:10:01.661Z,43.97
2018-07-08T10:12:31.521Z,43.70
2018-07-08T10:15:01.312Z,43.18
2018-07-08T10:17:31.156Z,42.80
2018-07-08T10:20:01.052Z,43.02
2018-07-08T10:22:32.007Z,42.43
2018-07-08T10:25:02.249Z,42.64
2018-07-08T10:28:16.103Z,43.93
2018-07-08T10:30:46.050Z,42.21
2018-07-08T10:33:15.939Z,40.95
2018-07-08T10:36:00.748Z,41.70
2018-07-08T10:38:30.761Z,41.39
2018-07-08T10:41:02.681Z,40.32
2018-07-08T10:43:32.541Z,39.78
2018-07-08T10:46:02.725Z,40.03
2018-07-08T10:48:32.684Z,39.15
2018-07-08T10:51:07.886Z,37.72
2018-07-08T10:53:37.989Z,38.61
2018-07-08T10:56:07.872Z,37.94
2018-07-08T10:58:38.797Z,38.42
2018-07-08T11:01:08.632Z,39.41
2018-07-08T11:03:38.544Z,37.94
2018-07-08T11:06:08.352Z,38.81
2018-07-08T11:08:38.183Z,38.67
2018-07-08T11:11:09.654Z,38.94
2018-07-08T11:13:39.537Z,39.55
2018-07-08T11:16:09.993Z,39.46
2018-07-08T11:18:41.090Z,39.37
2018-07-08T11:21:11.081Z,38.91
2018-07-08T11:23:40.935Z,38.06
2018-07-08T11:26:11.134Z,38.80
2018-07-08T11:28:41.029Z,39.32
2018-07-08T11:31:10.848Z,38.48
2018-07-08T11:33:40.707Z,38.33
2018-07-08T11:36:10.508Z,38.01
2018-07-08T11:38:40.316Z,38.28
2018-07-08T11:41:10.159Z,38.56
2018-07-08T11:43:40.348Z,39.28
2018-07-08T11:46:11.046Z,39.38
2018-07-08T11:48:40.919Z,39.51
2018-07-08T11:51:11.157Z,39.11
2018-07-08T11:53:41.048Z,38.60
2018-07-08T11:56:10.916Z,38.89
2018-07-08T11:58:42.533Z,41.13
2018-07-08T12:01:12.346Z,40.91
2018-07-08T12:03:42.252Z,41.49
2018-07-08T12:06:12.043Z,40.47
2018-07-08T12:08:42.130Z,41.43
2018-07-08T12:11:11.976Z,39.93
2018-07-08T12:13:41.841Z,39.60
2018-07-08T12:16:11.648Z,38.70
2018-07-08T12:18:41.591Z,38.00
2018-07-08T12:21:11.412Z,37.45
2018-07-08T12:23:42.486Z,36.53
2018-07-08T12:26:12.804Z,36.83
2018-07-08T12:28:42.591Z,36.73
2018-07-08T12:31:12.415Z,36.85
2018-07-08T12:33:42.274Z,38.58
2018-07-08T12:36:12.140Z,37.75
2018-07-08T12:38:42.010Z,39.22
2018-07-08T12:41:11.848Z,40.05
2018-07-08T12:43:41.677Z,41.39
2018-07-08T12:46:11.517Z,39.85
2018-07-08T12:48:41.396Z,40.81
2018-07-08T12:51:11.211Z,43.65
2018-07-08T12:53:41.060Z,45.12
2018-07-08T12:56:10.852Z,49.37
2018-07-08T12:58:40.724Z,51.05
2018-07-08T13:01:10.626Z,54.29
2018-07-08T13:03:40.426Z,57.22
2018-07-08T13:06:10.256Z,60.17
2018-07-08T13:08:40.192Z,61.71
2018-07-08T13:11:10.089Z,65.32
2018-07-08T13:13:39.893Z,66.71
2018-07-08T13:16:09.788Z,68.30
2018-07-08T13:18:39.767Z,69.30
2018-07-08T13:21:09.672Z,67.95
2018-07-08T13:23:39.462Z,67.00
2018-07-08T13:26:09.366Z,67.26
2018-07-08T13:28:39.182Z,67.60
2018-07-08T13:31:09.043Z,67.02
2018-07-08T13:33:38.862Z,66.54
2018-07-08T13:36:08.724Z,66.85
2018-07-08T13:38:38.555Z,68.27
2018-07-08T13:41:08.432Z,67.76
2018-07-08T13:43:38.267Z,68.79
2018-07-08T13:46:08.142Z,68.01
2018-07-08T13:48:37.948Z,69.46
2018-07-08T13:51:08.132Z,70.96
2018-07-08T13:53:37.980Z,70.62
2018-07-08T13:56:07.880Z,70.31
2018-07-08T13:58:37.764Z,70.83
2018-07-08T14:01:07.717Z,70.56
2018-07-08T14:03:37.505Z,68.70
2018-07-08T14:06:07.356Z,67.75
2018-07-08T14:08:37.223Z,67.82
2018-07-08T14:11:07.152Z,68.89
2018-07-08T14:13:36.996Z,67.40
2018-07-08T14:16:07.160Z,68.30
2018-07-08T14:18:37.092Z,69.22
2018-07-08T14:21:06.920Z,69.61
2018-07-08T14:23:36.835Z,69.58
2018-07-08T14:26:07.530Z,69.72
2018-07-08T14:28:37.432Z,70.24
2018-07-08T14:31:07.343Z,71.00
2018-07-08T14:33:37.184Z,69.63
2018-07-08T14:36:07.032Z,69.50
2018-07-08T14:38:36.911Z,69.78
2018-07-08T14:41:06.728Z,69.24
2018-07-08T14:43:36.572Z,68.60
2018-07-08T14:46:06.558Z,68.49
2018-07-08T14:48:36.511Z,68.20
2018-07-08T14:51:06.433Z,67.42
2018-07-08T14:53:36.378Z,66.95
2018-07-08T14:56:06.220Z,67.90
2018-07-08T14:58:36.200Z,67.50
2018-07-08T15:01:06.171Z,68.16
2018-07-08T15:03:36.033Z,66.97
2018-07-08T15:06:06.148Z,66.64
2018-07-08T15:08:36.060Z,67.35
2018-07-08T15:11:05.887Z,66.46
2018-07-08T15:13:35.728Z,66.79
2018-07-08T15:16:05.741Z,66.54
2018-07-08T15:18:35.568Z,66.62
2018-07-08T15:21:05.484Z,66.35
2018-07-08T15:23:35.409Z,65.40
2018-07-08T15:26:05.320Z,64.69
2018-07-08T15:28:35.387Z,64.37
2018-07-08T15:31:05.249Z,65.13
2018-07-08T15:33:35.148Z,64.60
2018-07-08T15:36:05.083Z,64.63
2018-07-08T15:38:34.892Z,64.69
2018-07-08T15:41:04.868Z,64.15
2018-07-08T15:43:34.708Z,63.80
2018-07-08T15:46:04.569Z,64.47
2018-07-08T15:48:34.412Z,64.26
2018-07-08T15:51:04.312Z,64.35
2018-07-08T15:53:34.166Z,63.51
2018-07-08T15:56:04.144Z,63.28
2018-07-08T15:58:33.936Z,61.81
2018-07-08T16:01:03.804Z,62.55
2018-07-08T16:03:33.679Z,62.15
2018-07-08T16:06:03.716Z,62.23
2018-07-08T16:08:33.568Z,60.85
2018-07-08T16:11:03.438Z,61.20
2018-07-08T16:13:33.376Z,61.32
2018-07-08T16:16:03.296Z,61.03
2018-07-08T16:18:33.327Z,60.84
2018-07-08T16:21:03.797Z,60.08
2018-07-08T16:23:33.955Z,60.44
2018-07-08T16:26:03.756Z,60.19
2018-07-08T16:28:33.619Z,61.02
2018-07-08T16:31:03.588Z,60.13
2018-07-08T16:33:33.417Z,60.41
2018-07-08T16:36:03.405Z,60.85
2018-07-08T16:38:33.222Z,61.22
2018-07-08T16:41:03.091Z,63.78
2018-07-08T16:43:32.952Z,65.18
2018-07-08T16:46:02.833Z,64.45
2018-07-08T16:48:32.749Z,66.39
2018-07-08T16:51:02.597Z,66.26
2018-07-08T16:53:32.482Z,65.74
2018-07-08T16:56:02.388Z,64.96
2018-07-08T16:58:32.247Z,66.48
2018-07-08T17:01:02.088Z,63.43
2018-07-08T17:03:32.013Z,62.14
2018-07-08T17:06:01.846Z,62.06
2018-07-08T17:08:31.969Z,62.57
2018-07-08T17:11:01.817Z,62.78
2018-07-08T17:13:31.612Z,66.99
2018-07-08T17:16:01.426Z,66.79
2018-07-08T17:18:31.520Z,66.93
2018-07-08T17:21:01.348Z,67.82
2018-07-08T17:23:31.388Z,67.99
2018-07-08T17:26:01.157Z,68.50
2018-07-08T17:28:31.029Z,68.64
2018-07-08T17:31:00.911Z,68.59
2018-07-08T17:33:30.909Z,68.57
2018-07-08T17:36:00.692Z,69.38
2018-07-08T17:38:30.580Z,69.71
2018-07-08T17:41:00.487Z,69.81
2018-07-08T17:43:30.346Z,70.54
2018-07-08T17:46:00.342Z,70.51
2018-07-08T17:48:30.117Z,70.33
2018-07-08T17:51:00.225Z,70.84
2018-07-08T17:53:30.080Z,71.12
2018-07-08T17:55:59.987Z,71.69
2018-07-08T17:58:29.894Z,70.46
2018-07-08T18:00:59.864Z,71.02
2018-07-08T18:03:29.716Z,70.45
2018-07-08T18:05:59.581Z,69.87
2018-07-08T18:08:29.480Z,71.72
2018-07-08T18:10:59.316Z,72.73
2018-07-08T18:13:29.436Z,72.72
2018-07-08T18:15:59.248Z,72.68
2018-07-08T18:18:29.249Z,71.61
2018-07-08T18:20:59.132Z,71.10
2018-07-08T18:23:29.011Z,71.10
2018-07-08T18:25:58.964Z,70.71
2018-07-08T18:28:28.872Z,70.72
2018-07-08T18:30:58.820Z,70.57
2018-07-08T18:33:28.722Z,72.45
2018-07-08T18:35:58.574Z,72.94
2018-07-08T18:38:28.452Z,72.07
2018-07-08T18:40:58.499Z,73.00
2018-07-08T18:43:28.304Z,72.98
2018-07-08T18:48:26.613Z,74.73
2018-07-08T18:50:56.508Z,74.49
2018-07-08T18:53:26.432Z,73.84
2018-07-08T18:55:56.284Z,73.90
2018-07-08T18:58:26.208Z,73.39
2018-07-08T19:00:56.104Z,74.17
2018-07-08T19:03:25.932Z,74.80
2018-07-08T19:05:55.825Z,74.88
2018-07-08T19:08:25.713Z,74.46
2018-07-08T19:10:55.619Z,74.68
2018-07-08T19:13:25.516Z,74.51
2018-07-08T19:15:55.518Z,75.04
2018-07-08T19:18:25.400Z,73.02
2018-07-08T19:20:55.213Z,71.63
2018-07-08T19:23:25.144Z,72.37
2018-07-08T19:25:55.056Z,71.59
2018-07-08T19:28:24.901Z,71.83
2018-07-08T19:30:54.766Z,71.23
2018-07-08T19:33:24.673Z,70.18
2018-07-08T19:35:54.688Z,70.18
2018-07-08T19:38:24.616Z,70.71
2018-07-08T19:40:54.536Z,70.21
2018-07-08T19:43:24.501Z,71.37
2018-07-08T19:45:54.391Z,70.85
2018-07-08T19:48:24.232Z,71.16
2018-07-08T19:50:54.171Z,71.29
2018-07-08T19:53:24.084Z,71.18
2018-07-08T19:55:53.916Z,71.79
2018-07-08T19:58:23.875Z,70.97
2018-07-08T20:00:54.137Z,70.37
2018-07-08T20:03:23.995Z,71.08
2018-07-08T20:05:53.916Z,70.12
2018-07-08T20:08:23.798Z,69.83
2018-07-08T20:10:53.797Z,70.73
2018-07-08T20:13:23.900Z,70.30
2018-07-08T20:15:53.757Z,70.91
2018-07-08T20:18:23.672Z,71.08
2018-07-08T20:20:53.580Z,71.02
2018-07-08T20:23:23.648Z,71.64
2018-07-08T20:25:53.604Z,71.22
2018-07-08T20:28:23.456Z,70.91
2018-07-08T20:30:53.436Z,71.85
2018-07-08T20:33:23.273Z,73.61
2018-07-08T20:35:53.245Z,73.56
2018-07-08T20:38:23.134Z,73.20
2018-07-08T20:40:52.984Z,73.45
2018-07-08T20:43:22.817Z,73.37
2018-07-08T20:45:53.066Z,73.92
2018-07-08T20:48:23.012Z,74.15
2018-07-08T20:50:52.823Z,74.22
2018-07-08T20:53:22.755Z,73.95
2018-07-08T20:55:52.604Z,73.97
2018-07-08T20:58:22.644Z,74.84
2018-07-08T21:00:52.733Z,74.39
2018-07-08T21:03:22.612Z,74.51
2018-07-08T21:05:52.449Z,75.16
2018-07-08T21:08:22.324Z,74.36
2018-07-08T21:10:52.244Z,74.49
2018-07-08T21:13:22.124Z,73.82
2018-07-08T21:15:51.948Z,74.10
2018-07-08T21:18:21.866Z,75.43
2018-07-08T21:20:51.740Z,74.52
2018-07-08T21:23:21.632Z,75.82
2018-07-08T21:25:51.675Z,75.25
2018-07-08T21:28:21.532Z,74.13
2018-07-08T21:30:51.391Z,72.89
2018-07-08T21:33:21.284Z,71.96
2018-07-08T21:35:51.172Z,73.25
2018-07-08T21:38:21.077Z,71.82
2018-07-08T21:40:50.933Z,71.02
2018-07-08T21:43:20.924Z,70.74
2018-07-08T21:45:50.936Z,71.34
2018-07-08T21:48:20.888Z,72.09
2018-07-08T21:50:50.782Z,70.91
2018-07-08T21:53:20.592Z,70.42
2018-07-08T21:55:50.420Z,69.54
2018-07-08T21:58:20.298Z,70.23
2018-07-08T22:01:22.638Z,69.79
2018-07-08T22:03:52.977Z,69.96
2018-07-08T22:06:22.862Z,70.24
2018-07-08T22:08:52.736Z,69.63
2018-07-08T22:11:22.628Z,70.37
2018-07-08T22:13:52.583Z,70.62
2018-07-08T22:16:22.461Z,70.59
2018-07-08T22:18:52.336Z,70.19
2018-07-08T22:21:22.188Z,69.86
2018-07-08T22:23:52.092Z,70.00
2018-07-08T22:26:21.879Z,70.16
2018-07-08T22:28:51.908Z,69.31
2018-07-08T22:31:21.816Z,69.62
2018-07-08T22:33:51.652Z,69.79
2018-07-08T22:36:21.544Z,70.10
2018-07-08T22:38:51.528Z,69.43
2018-07-08T22:41:21.375Z,69.96
2018-07-08T22:43:51.288Z,69.44
2018-07-08T22:46:21.183Z,69.90
2018-07-08T22:48:51.048Z,69.62
2018-07-08T22:51:21.017Z,69.93
2018-07-08T22:53:50.896Z,69.24
2018-07-08T22:56:20.848Z,69.63
2018-07-08T22:58:50.772Z,69.55
2018-07-08T23:01:31.749Z,68.90
2018-07-08T23:04:02.428Z,68.70
2018-07-08T23:06:32.520Z,68.94
2018-07-08T23:09:02.526Z,68.40
2018-07-08T23:11:32.504Z,68.73
2018-07-08T23:14:02.429Z,68.96
2018-07-08T23:16:32.308Z,68.67
2018-07-08T23:19:02.177Z,68.24
2018-07-08T23:21:32.032Z,69.22
2018-07-08T23:24:01.874Z,69.53
2018-07-08T23:26:31.760Z,70.30
2018-07-08T23:29:01.680Z,68.90
2018-07-08T23:31:31.634Z,68.43
2018-07-08T23:34:01.598Z,68.46
2018-07-08T23:36:31.604Z,67.79
2018-07-08T23:39:01.524Z,68.24
2018-07-08T23:41:31.424Z,68.08
2018-07-08T23:44:01.372Z,68.87
2018-07-08T23:46:31.241Z,68.18
2018-07-08T23:49:01.202Z,68.09
2018-07-08T23:51:31.168Z,67.71
2018-07-08T23:54:01.060Z,67.27
2018-07-08T23:56:30.924Z,67.89
2018-07-08T23:59:00.819Z,67.21
